Time;durP1;ratioP1;P1;durP2;ratioP2;P2;SDS_P1;SDS_P2;PMS_P1;PMS_P2;Temp;Humidity;BMP_temperature;BMP_pressure;BME280_temperature;BME280_humidity;BME280_pressure;Samples;Min_cycle;Max_cycle;Signal;HPM_P1;HPM_P2
2022/07/18 00:01:40;;;;;;;8.55;3.90;;;;;;;19.47;53.13;102315.25;4996694;28;20084;-82
2022/07/18 00:04:06;;;;;;;9.68;4.40;;;;;;;19.39;53.10;102314.34;4979255;28;20038;-82
2022/07/18 00:06:31;;;;;;;7.30;3.80;;;;;;;19.14;53.43;102293.84;4996667;28;20478;-82
2022/07/18 00:08:57;;;;;;;8.57;4.15;;;;;;;19.12;54.26;102298.34;4996202;28;20505;-82
2022/07/18 00:11:22;;;;;;;13.98;4.03;;;;;;;19.08;54.68;102315.31;4995553;28;20415;-82
2022/07/18 00:13:47;;;;;;;11.43;3.92;;;;;;;19.12;54.70;102311.75;4996566;28;20038;-83
2022/07/18 00:16:13;;;;;;;11.15;4.28;;;;;;;18.90;55.12;102295.69;4995568;28;20022;-82
2022/07/18 00:18:38;;;;;;;10.77;3.90;;;;;;;18.92;55.19;102309.06;4996531;28;20418;-82
2022/07/18 00:21:04;;;;;;;10.02;4.50;;;;;;;18.88;55.87;102313.53;4996597;28;20027;-82
2022/07/18 00:23:29;;;;;;;11.85;4.20;;;;;;;18.70;56.03;102301.03;4996311;28;20471;-82
2022/07/18 00:25:55;;;;;;;9.30;4.22;;;;;;;18.68;55.86;102291.19;4996405;28;20097;-82
2022/07/18 00:28:20;;;;;;;9.85;4.40;;;;;;;18.68;56.48;102301.91;4996416;28;20026;-83
2022/07/18 00:30:46;;;;;;;7.45;3.95;;;;;;;18.62;56.66;102305.44;4995970;28;20065;-86
2022/07/18 00:33:11;;;;;;;7.25;3.70;;;;;;;18.66;56.44;102296.53;4996383;28;20462;-82
2022/07/18 00:35:37;;;;;;;12.35;4.28;;;;;;;18.69;56.39;102296.56;4994953;28;20034;-82
2022/07/18 00:38:02;;;;;;;6.18;4.25;;;;;;;18.71;56.06;102300.16;4996447;28;20451;-82
2022/07/18 00:40:29;;;;;;;7.97;4.05;;;;;;;18.63;56.27;102283.16;4994560;28;20042;-83
2022/07/18 00:42:54;;;;;;;7.38;3.95;;;;;;;18.74;55.60;102300.16;4995979;28;20030;-82
2022/07/18 00:45:20;;;;;;;7.90;3.83;;;;;;;18.77;55.54;102292.13;4995742;28;20039;-82
2022/07/18 00:47:45;;;;;;;6.43;4.10;;;;;;;18.74;55.77;102288.53;4996164;28;20068;-82
2022/07/18 00:50:11;;;;;;;9.73;4.10;;;;;;;18.68;55.65;102285.84;4996006;28;20113;-81
2022/07/18 00:52:37;;;;;;;5.47;3.88;;;;;;;18.65;56.31;102288.50;4995689;28;20069;-82
2022/07/18 00:55:06;;;;;;;7.40;3.55;;;;;;;18.50;56.94;102276.91;4994611;28;20121;-82
2022/07/18 00:57:32;;;;;;;9.85;4.05;;;;;;;18.55;56.56;102268.00;4995532;28;20382;-83
2022/07/18 01:02:41;;;;;;;8.68;3.97;;;;;;;18.47;56.55;102284.03;4981116;28;20053;-82
2022/07/18 01:05:08;;;;;;;11.65;4.10;;;;;;;18.45;57.11;102280.44;4978004;28;20019;-82
2022/07/18 01:07:35;;;;;;;6.75;3.80;;;;;;;18.36;56.75;102267.06;4994765;28;20058;-82
2022/07/18 01:10:02;;;;;;;10.45;4.10;;;;;;;18.44;56.71;102276.88;4977891;28;20462;-82
2022/07/18 01:12:27;;;;;;;9.30;3.95;;;;;;;18.47;56.50;102274.22;4995293;28;20027;-82
2022/07/18 01:14:53;;;;;;;9.02;3.90;;;;;;;18.45;56.87;102269.75;4994158;28;20045;-82
2022/07/18 01:17:19;;;;;;;5.97;3.78;;;;;;;18.48;56.54;102273.31;4995349;28;20417;-82
2022/07/18 01:19:45;;;;;;;7.90;4.03;;;;;;;18.18;57.08;102271.50;4996236;28;20443;-82
2022/07/18 01:22:13;;;;;;;7.60;3.97;;;;;;;18.00;57.16;102250.94;4994547;28;20038;-82
2022/07/18 01:24:40;;;;;;;6.25;3.95;;;;;;;18.02;57.38;102267.88;4995512;28;20030;-82
2022/07/18 01:27:06;;;;;;;6.72;3.80;;;;;;;18.02;57.37;102261.66;4994230;28;20030;-82
2022/07/18 01:29:31;;;;;;;6.85;3.70;;;;;;;17.99;57.33;102254.53;4995835;28;20029;-82
2022/07/18 01:32:04;;;;;;;7.40;4.10;;;;;;;17.98;57.18;102266.09;4995359;28;20027;-82
2022/07/18 01:34:29;;;;;;;7.28;3.92;;;;;;;17.90;57.18;102251.81;4995245;28;20102;-82
2022/07/18 01:36:54;;;;;;;6.18;4.10;;;;;;;17.98;57.13;102275.91;4995071;28;20026;-83
2022/07/18 01:39:20;;;;;;;9.00;4.43;;;;;;;17.94;57.13;102266.06;4994925;28;20032;-83
2022/07/18 01:41:45;;;;;;;7.90;4.00;;;;;;;17.88;57.23;102258.03;4993458;28;20167;-83
2022/07/18 01:44:10;;;;;;;8.98;4.45;;;;;;;17.72;57.28;102241.91;4993604;28;20098;-83
2022/07/18 01:46:36;;;;;;;5.97;4.40;;;;;;;17.88;56.98;102264.28;4993922;28;20113;-82
2022/07/18 01:49:01;;;;;;;8.95;4.53;;;;;;;17.84;57.00;102266.94;4994731;28;20481;-82
2022/07/18 01:51:27;;;;;;;7.97;4.30;;;;;;;17.76;57.00;102256.22;4994883;28;20105;-83
2022/07/18 01:53:59;;;;;;;8.50;4.30;;;;;;;17.74;57.38;102266.03;4994883;28;20022;-83
2022/07/18 01:56:24;;;;;;;8.32;4.30;;;;;;;17.82;57.22;102269.63;4994805;28;20026;-84
2022/07/18 01:58:50;;;;;;;11.40;4.53;;;;;;;17.81;56.95;102272.28;4993743;28;20034;-82
2022/07/18 02:01:15;;;;;;;6.72;4.00;;;;;;;17.73;57.47;102269.56;4994809;28;20034;-83
2022/07/18 02:03:40;;;;;;;7.72;4.55;;;;;;;17.68;57.69;102256.16;4993258;28;20422;-83
2022/07/18 02:06:06;;;;;;;7.85;4.38;;;;;;;17.63;58.05;102257.03;4993142;28;20031;-83
2022/07/18 02:08:31;;;;;;;8.20;4.57;;;;;;;17.48;58.57;102249.84;4993382;28;20026;-83
2022/07/18 02:10:57;;;;;;;6.22;4.00;;;;;;;17.54;58.75;102268.56;4992936;28;20378;-83
2022/07/18 02:13:23;;;;;;;10.23;4.10;;;;;;;17.48;58.74;102257.88;4994763;28;20045;-83
2022/07/18 02:15:49;;;;;;;7.28;3.90;;;;;;;17.53;59.20;102256.09;4993796;28;20039;-83
2022/07/18 02:18:15;;;;;;;8.52;4.07;;;;;;;17.49;59.37;102247.16;4993070;28;20030;-82
2022/07/18 02:20:40;;;;;;;7.90;3.97;;;;;;;17.50;58.99;102245.38;4993217;28;20425;-83
2022/07/18 02:23:07;;;;;;;6.75;4.15;;;;;;;17.46;59.05;102247.16;4994371;28;20028;-83
2022/07/18 02:25:33;;;;;;;6.65;4.25;;;;;;;17.40;58.90;102236.44;4994315;28;20439;-83
2022/07/18 02:27:59;;;;;;;9.00;4.28;;;;;;;17.32;59.15;102232.84;4993094;28;20474;-82
2022/07/18 02:30:24;;;;;;;7.25;4.65;;;;;;;17.24;59.27;102235.47;4993053;28;20109;-82
2022/07/18 02:32:50;;;;;;;8.25;4.53;;;;;;;17.18;59.28;102237.22;4993992;28;20138;-82
2022/07/18 02:35:15;;;;;;;7.60;4.60;;;;;;;17.05;59.34;102236.25;4994212;28;20030;-82
2022/07/18 02:37:41;;;;;;;8.65;4.45;;;;;;;16.94;59.52;102232.59;4976568;28;20109;-83
2022/07/18 02:40:09;;;;;;;9.98;4.50;;;;;;;16.99;59.73;102253.09;4992899;28;20360;-82
2022/07/18 02:42:35;;;;;;;8.48;4.70;;;;;;;16.99;59.76;102244.22;4993709;28;20046;-82
2022/07/18 02:45:00;;;;;;;10.15;4.68;;;;;;;16.88;60.00;102238.81;4993827;28;20100;-83
2022/07/18 02:47:26;;;;;;;9.88;4.40;;;;;;;16.87;60.39;102237.00;4993980;28;20030;-82
2022/07/18 02:49:51;;;;;;;11.27;4.50;;;;;;;16.89;60.35;102234.34;4993774;28;20037;-83
2022/07/18 02:52:16;;;;;;;8.07;4.65;;;;;;;16.93;60.06;102231.72;4994333;28;20030;-83
2022/07/18 02:54:42;;;;;;;8.77;4.63;;;;;;;16.87;59.62;102229.00;4994123;28;20542;-83
2022/07/18 02:57:07;;;;;;;10.07;5.00;;;;;;;17.00;59.14;102241.56;4994065;28;20026;-83
2022/07/18 02:59:33;;;;;;;10.73;5.07;;;;;;;17.02;59.21;102241.56;4993815;28;20117;-83
2022/07/18 03:01:58;;;;;;;8.02;5.15;;;;;;;17.05;58.78;102246.03;4992821;28;20246;-83
2022/07/18 03:04:24;;;;;;;6.70;5.10;;;;;;;16.94;59.10;102232.59;4993758;28;20037;-82
2022/07/18 03:06:50;;;;;;;8.00;4.78;;;;;;;16.95;59.00;102243.28;4993622;28;20054;-83
2022/07/18 03:09:16;;;;;;;9.30;4.55;;;;;;;16.94;59.51;102233.50;4993446;28;20034;-82
2022/07/18 03:11:42;;;;;;;8.40;4.72;;;;;;;16.95;59.50;102223.72;4992435;28;20533;-83
2022/07/18 03:14:07;;;;;;;8.15;4.28;;;;;;;16.93;60.63;102220.16;4993907;28;20030;-83
2022/07/18 03:16:33;;;;;;;6.70;4.50;;;;;;;16.99;60.80;102225.50;4993590;28;20029;-83
2022/07/18 03:18:59;;;;;;;7.32;4.28;;;;;;;16.96;60.32;102221.06;4993768;28;20030;-82
2022/07/18 03:21:25;;;;;;;9.57;4.80;;;;;;;16.77;61.15;102219.13;4993547;28;20030;-83
2022/07/18 03:23:50;;;;;;;11.38;4.85;;;;;;;16.79;61.12;102212.06;4993465;28;20382;-83
2022/07/18 03:26:16;;;;;;;8.25;4.75;;;;;;;16.85;60.72;102206.75;4993765;28;20030;-83
2022/07/18 03:28:41;;;;;;;9.52;4.78;;;;;;;16.89;59.94;102200.53;4995513;28;20025;-83
2022/07/18 03:31:06;;;;;;;12.77;5.28;;;;;;;16.99;59.62;102210.38;4997175;28;20026;-83
2022/07/18 03:33:32;;;;;;;16.15;10.38;;;;;;;16.86;59.15;102180.94;4997298;28;20034;-82
2022/07/18 03:35:58;;;;;;;13.88;5.15;;;;;;;16.95;59.16;102205.00;4997280;28;20038;-82
2022/07/18 03:38:23;;;;;;;12.20;5.15;;;;;;;16.67;59.26;102185.22;4996825;28;20384;-82
2022/07/18 03:40:48;;;;;;;8.30;5.18;;;;;;;16.66;60.00;102205.69;4996472;28;20125;-83
2022/07/18 03:43:14;;;;;;;9.65;4.70;;;;;;;16.55;60.12;102204.72;4996618;28;20026;-83
2022/07/18 03:45:39;;;;;;;8.18;4.82;;;;;;;16.51;60.30;102192.22;4996697;28;20443;-83
2022/07/18 03:48:05;;;;;;;7.47;4.53;;;;;;;16.54;60.36;102194.94;4994955;28;20431;-84
2022/07/18 03:50:31;;;;;;;12.13;5.60;;;;;;;16.50;60.57;102196.66;4978784;28;20034;-83
2022/07/18 03:52:56;;;;;;;8.82;5.15;;;;;;;16.40;60.85;102194.81;4996370;28;20089;-83
2022/07/18 03:55:22;;;;;;;6.70;4.75;;;;;;;16.39;61.10;102208.13;4996311;28;20356;-83
2022/07/18 03:57:48;;;;;;;7.32;4.57;;;;;;;16.36;61.18;102202.75;4995013;28;20105;-83
2022/07/18 04:00:14;;;;;;;13.30;5.00;;;;;;;16.27;61.50;102193.81;4994886;28;20458;-83
2022/07/18 04:02:42;;;;;;;10.93;5.22;;;;;;;16.25;61.51;102182.22;4996377;28;20062;-83
2022/07/18 04:05:08;;;;;;;7.68;4.68;;;;;;;16.34;61.35;102193.88;4994692;28;20058;-83
2022/07/18 04:07:34;;;;;;;8.05;5.03;;;;;;;16.28;61.58;102184.03;4995997;28;20473;-82
2022/07/18 04:09:59;;;;;;;7.72;4.93;;;;;;;16.31;61.81;102185.81;4994597;28;20034;-83
2022/07/18 04:12:24;;;;;;;7.18;5.03;;;;;;;16.41;61.69;102201.94;4995748;28;20158;-83
2022/07/18 04:14:50;;;;;;;8.57;4.72;;;;;;;16.40;61.87;102202.81;4995860;28;20401;-83
2022/07/18 04:17:15;;;;;;;7.95;4.78;;;;;;;16.47;61.54;102203.75;4994780;28;20040;-83
2022/07/18 04:19:41;;;;;;;8.43;4.80;;;;;;;16.47;61.69;102198.41;4978455;28;20037;-83
2022/07/18 04:22:06;;;;;;;8.57;5.05;;;;;;;16.47;61.67;102193.97;4994375;28;20088;-83
2022/07/18 04:24:32;;;;;;;11.68;5.15;;;;;;;16.41;61.91;102190.38;4995984;28;20102;-83
2022/07/18 04:26:57;;;;;;;9.57;5.28;;;;;;;16.36;61.92;102174.34;4978288;28;20080;-83
2022/07/18 04:29:22;;;;;;;10.52;4.63;;;;;;;16.36;61.85;102174.34;4994138;28;20485;-83
2022/07/18 04:31:48;;;;;;;8.15;4.90;;;;;;;16.43;62.10;102175.25;4994180;28;20186;-83
2022/07/18 04:34:13;;;;;;;9.35;5.00;;;;;;;16.45;62.18;102170.84;4995583;28;20517;-83
2022/07/18 04:36:38;;;;;;;8.82;5.05;;;;;;;16.42;62.16;102160.13;4994251;28;20037;-87
2022/07/18 04:39:04;;;;;;;10.15;4.75;;;;;;;16.62;61.72;102174.53;4994799;28;20030;-82
2022/07/18 04:41:29;;;;;;;10.48;4.97;;;;;;;16.75;61.71;102171.09;4995421;28;20433;-83
2022/07/18 04:43:55;;;;;;;11.98;5.22;;;;;;;16.89;61.40;102163.16;4994429;28;20050;-82
2022/07/18 04:46:20;;;;;;;11.48;5.18;;;;;;;16.97;61.03;102174.78;4994001;28;20033;-83
2022/07/18 04:48:46;;;;;;;10.30;5.18;;;;;;;16.90;61.58;102169.38;4994022;28;20076;-83
2022/07/18 04:51:12;;;;;;;10.40;5.28;;;;;;;16.83;61.71;102171.16;4994431;28;20056;-83
2022/07/18 04:53:37;;;;;;;13.57;5.07;;;;;;;16.90;60.81;102178.28;4995267;28;20081;-82
2022/07/18 04:56:03;;;;;;;9.38;5.43;;;;;;;16.99;60.06;102172.09;4995307;28;20419;-82
2022/07/18 04:58:28;;;;;;;11.40;5.40;;;;;;;16.93;60.28;102170.31;4995098;28;20034;-82
2022/07/18 05:00:55;;;;;;;7.30;4.95;;;;;;;17.07;61.80;102189.06;4977664;28;20132;-83
2022/07/18 05:03:21;;;;;;;10.05;5.38;;;;;;;17.02;61.38;102173.03;4994079;28;20473;-82
2022/07/18 05:05:46;;;;;;;15.63;5.80;;;;;;;17.05;61.09;102181.94;4994741;28;20463;-82
2022/07/18 05:08:13;;;;;;;7.13;5.10;;;;;;;17.14;61.33;102177.53;4995048;28;20030;-83
2022/07/18 05:10:39;;;;;;;9.30;5.40;;;;;;;17.24;61.33;102179.34;4993520;28;20026;-84
2022/07/18 05:13:05;;;;;;;9.88;5.70;;;;;;;17.23;59.81;102171.34;4994839;28;20031;-84
2022/07/18 05:15:30;;;;;;;12.13;5.80;;;;;;;17.41;58.81;102171.41;4993518;28;20497;-84
2022/07/18 05:17:55;;;;;;;12.30;6.00;;;;;;;17.64;58.45;102184.84;4993428;28;20507;-85
2022/07/18 05:20:23;;;;;;;10.50;5.65;;;;;;;17.84;57.77;102181.38;4961179;28;20038;-83
2022/07/18 05:22:48;;;;;;;13.70;5.80;;;;;;;18.10;58.26;102189.44;4994767;28;20105;-85
2022/07/18 05:25:15;;;;;;;10.15;5.78;;;;;;;18.27;57.45;102183.19;4993504;28;20026;-86
2022/07/18 05:27:40;;;;;;;10.60;6.00;;;;;;;18.36;57.31;102176.06;4994668;28;20173;-84
2022/07/18 05:30:08;;;;;;;17.08;5.93;;;;;;;18.46;56.83;102183.22;4994429;28;20391;-84
2022/07/18 05:32:34;;;;;;;11.45;6.18;;;;;;;18.54;56.61;102173.38;4994405;28;20037;-84
2022/07/18 05:34:59;;;;;;;13.48;6.00;;;;;;;18.67;56.43;102187.63;4994367;28;20034;-83
2022/07/18 05:37:24;;;;;;;14.38;5.78;;;;;;;18.76;55.91;102185.91;4994556;28;20028;-83
2022/07/18 05:39:53;;;;;;;15.82;5.82;;;;;;;18.88;55.87;102178.72;4993975;28;20038;-83
2022/07/18 05:42:19;;;;;;;11.65;5.75;;;;;;;19.04;57.05;102164.38;4994079;28;20058;-83
2022/07/18 05:44:44;;;;;;;14.25;6.47;;;;;;;19.12;55.74;102172.41;4994190;28;20034;-83
2022/07/18 05:47:10;;;;;;;13.48;5.70;;;;;;;19.38;55.71;102186.59;4994404;28;20030;-83
2022/07/18 05:49:35;;;;;;;14.05;5.95;;;;;;;19.39;54.20;102174.09;4994193;28;20054;-83
2022/07/18 05:52:01;;;;;;;16.65;5.97;;;;;;;19.60;54.48;102179.34;4992223;28;20030;-83
2022/07/18 05:54:26;;;;;;;9.15;5.85;;;;;;;19.78;53.19;102186.41;4994449;28;20034;-83
2022/07/18 05:56:52;;;;;;;9.25;6.00;;;;;;;19.81;52.34;102174.78;4994265;28;20030;-82
2022/07/18 05:59:19;;;;;;;10.90;5.78;;;;;;;20.12;52.43;102186.19;4992869;28;20031;-83
2022/07/18 06:01:45;;;;;;;12.43;6.10;;;;;;;20.34;52.22;102184.22;4994148;28;20018;-82
2022/07/18 06:04:10;;;;;;;12.18;6.03;;;;;;;20.46;52.12;102185.00;4993969;28;20033;-83
2022/07/18 06:06:36;;;;;;;12.60;6.65;;;;;;;20.76;50.95;102185.66;4992708;28;20034;-82
2022/07/18 06:09:03;;;;;;;22.98;6.28;;;;;;;20.82;50.67;102174.88;4994044;28;20026;-83
2022/07/18 06:11:29;;;;;;;9.13;5.78;;;;;;;20.87;49.92;102169.44;4993876;28;20031;-83
2022/07/18 06:13:54;;;;;;;11.15;6.22;;;;;;;21.00;50.82;102176.47;4994087;28;20034;-83
2022/07/18 06:16:19;;;;;;;10.18;5.35;;;;;;;21.39;49.90;102182.31;4993734;28;20037;-83
2022/07/18 06:18:45;;;;;;;13.85;6.03;;;;;;;21.49;49.08;102162.44;4993637;28;20113;-82
2022/07/18 06:21:10;;;;;;;10.73;5.68;;;;;;;21.74;48.86;102161.19;4993450;28;20429;-81
2022/07/18 06:23:36;;;;;;;13.70;5.55;;;;;;;21.92;48.76;102167.19;4993623;28;20038;-81
2022/07/18 06:26:01;;;;;;;13.95;7.40;;;;;;;22.06;47.80;102158.94;4993406;28;20475;-83
2022/07/18 06:28:28;;;;;;;12.65;6.05;;;;;;;22.25;47.43;102164.00;4993464;28;20096;-82
2022/07/18 06:30:53;;;;;;;12.38;5.80;;;;;;;22.30;46.44;102157.66;4993417;28;20027;-82
2022/07/18 06:33:19;;;;;;;15.23;5.75;;;;;;;22.44;44.87;102155.59;4992127;28;20118;-81
2022/07/18 06:35:46;;;;;;;15.90;6.03;;;;;;;22.51;46.20;102157.28;4992268;28;20026;-81
2022/07/18 06:38:12;;;;;;;14.23;5.25;;;;;;;22.71;45.79;102159.63;4993579;28;20034;-81
2022/07/18 06:40:38;;;;;;;12.88;5.50;;;;;;;22.85;45.13;102159.34;4993076;28;20039;-82
2022/07/18 06:43:03;;;;;;;11.23;6.28;;;;;;;22.98;44.80;102140.22;4993418;28;20034;-82
2022/07/18 06:45:28;;;;;;;18.15;6.05;;;;;;;23.12;44.11;102137.25;4992215;28;20117;-83
2022/07/18 06:47:54;;;;;;;14.18;5.70;;;;;;;23.31;44.45;102137.75;4993139;28;20054;-84
2022/07/18 06:50:19;;;;;;;14.23;5.80;;;;;;;23.37;44.17;102147.50;4993583;28;20034;-83
2022/07/18 06:52:45;;;;;;;12.27;5.72;;;;;;;23.45;43.44;102140.16;4993094;28;20096;-81
2022/07/18 06:55:12;;;;;;;12.75;6.00;;;;;;;23.53;43.12;102130.06;4993526;28;20042;-81
2022/07/18 06:57:38;;;;;;;10.57;5.57;;;;;;;23.53;43.57;102138.16;4993444;28;20031;-83
2022/07/18 07:00:06;;;;;;;12.70;5.40;;;;;;;23.57;43.62;102133.59;4993487;28;20022;-82
2022/07/18 07:02:32;;;;;;;13.18;6.00;;;;;;;23.65;42.20;102134.34;4994801;28;20030;-82
2022/07/18 07:04:57;;;;;;;16.95;5.63;;;;;;;23.56;44.01;102140.81;4999706;28;20032;-82
2022/07/18 07:07:22;;;;;;;9.88;5.85;;;;;;;23.63;42.58;102147.81;4998484;28;20109;-82
2022/07/18 07:09:48;;;;;;;13.65;5.88;;;;;;;23.79;42.82;102142.09;4997202;28;20077;-82
2022/07/18 07:12:13;;;;;;;11.23;5.50;;;;;;;24.03;43.41;102135.25;4997493;28;20336;-82
2022/07/18 07:14:38;;;;;;;14.45;6.05;;;;;;;24.32;41.82;102138.06;4996780;28;20030;-82
2022/07/18 07:17:04;;;;;;;12.52;5.40;;;;;;;24.61;41.87;102141.84;4996846;28;20030;-83
2022/07/18 07:19:29;;;;;;;12.65;5.57;;;;;;;24.94;41.74;102142.75;4996960;28;20030;-82
2022/07/18 07:21:55;;;;;;;14.18;5.40;;;;;;;25.26;40.85;102147.22;4997178;28;20034;-84
2022/07/18 07:24:21;;;;;;;13.73;5.80;;;;;;;25.54;40.31;102147.28;4996935;28;20070;-82
2022/07/18 07:26:46;;;;;;;13.52;5.20;;;;;;;25.85;39.54;102144.53;4995641;28;20038;-82
2022/07/18 07:29:12;;;;;;;13.77;5.03;;;;;;;26.11;38.47;102146.38;4996635;28;20417;-82
2022/07/18 07:31:38;;;;;;;11.00;5.32;;;;;;;26.31;37.97;102143.00;4996611;28;20022;-82
2022/07/18 07:34:03;;;;;;;18.02;5.43;;;;;;;26.42;37.45;102146.22;4996853;28;20065;-82
2022/07/18 07:36:29;;;;;;;13.77;5.10;;;;;;;26.58;37.52;102153.84;4996646;28;20030;-82
2022/07/18 07:38:55;;;;;;;15.52;5.03;;;;;;;26.67;37.69;102140.84;4996605;28;20057;-82
2022/07/18 07:41:20;;;;;;;10.52;4.30;;;;;;;26.63;37.17;102141.00;4995049;28;20053;-83
2022/07/18 07:43:46;;;;;;;11.10;4.30;;;;;;;26.68;37.01;102139.00;4996502;28;20032;-82
2022/07/18 07:46:11;;;;;;;14.57;4.70;;;;;;;26.70;37.51;102139.84;4996372;28;20112;-82
2022/07/18 07:48:38;;;;;;;14.85;4.53;;;;;;;26.83;36.25;102133.03;4994979;28;20022;-82
2022/07/18 07:51:04;;;;;;;12.70;4.28;;;;;;;26.90;37.83;102126.44;4996462;28;20117;-82
2022/07/18 07:53:30;;;;;;;12.10;3.97;;;;;;;27.02;37.73;102124.19;4996552;28;20433;-83
2022/07/18 07:55:55;;;;;;;9.93;3.95;;;;;;;27.43;36.42;102120.81;4995130;28;20072;-82
2022/07/18 07:58:20;;;;;;;15.18;4.30;;;;;;;27.69;34.93;102116.16;4996108;28;20446;-82
2022/07/18 08:00:46;;;;;;;11.32;3.88;;;;;;;28.01;35.34;102111.25;4996454;28;20053;-82
2022/07/18 08:03:11;;;;;;;12.50;3.67;;;;;;;28.30;34.51;102108.16;4995921;28;20472;-82
2022/07/18 08:05:44;;;;;;;9.88;3.65;;;;;;;28.53;33.52;102107.22;4996223;28;20117;-82
2022/07/18 08:08:10;;;;;;;10.27;2.90;;;;;;;28.69;28.60;102102.84;4996199;28;20109;-82
2022/07/18 08:10:35;;;;;;;8.50;2.80;;;;;;;28.75;28.56;102087.22;4995973;28;20080;-82
2022/07/18 08:13:01;;;;;;;6.18;2.40;;;;;;;28.72;26.88;102099.09;4995957;28;20042;-83
2022/07/18 08:15:26;;;;;;;5.28;2.70;;;;;;;28.67;27.39;102088.44;4995300;28;20026;-80
2022/07/18 08:17:53;;;;;;;6.72;2.50;;;;;;;28.91;27.42;102093.72;4995330;28;20033;-80
2022/07/18 08:20:18;;;;;;;7.25;2.70;;;;;;;29.00;27.25;102090.59;4996173;28;20030;-80
2022/07/18 08:23:11;;;;;;;11.40;2.60;;;;;;;29.16;26.12;102080.75;4994371;28;20045;-79
2022/07/18 08:25:38;;;;;;;10.43;2.50;;;;;;;28.98;25.72;102087.03;4995713;28;20066;-81
2022/07/18 08:28:05;;;;;;;8.02;2.60;;;;;;;29.23;26.37;102084.06;4994484;28;20035;-81
2022/07/18 08:30:31;;;;;;;9.23;2.70;;;;;;;29.53;25.29;102091.69;4995580;28;20439;-81
2022/07/18 08:32:57;;;;;;;5.00;2.25;;;;;;;29.54;25.12;102098.91;4994354;28;20031;-78
2022/07/18 08:35:22;;;;;;;7.47;2.35;;;;;;;29.63;24.84;102091.19;4995721;28;20443;-78
2022/07/18 08:37:48;;;;;;;13.15;2.63;;;;;;;29.60;24.82;102095.94;4994272;28;20220;-79
2022/07/18 08:40:14;;;;;;;12.05;2.90;;;;;;;29.55;24.20;102082.50;4995512;28;20035;-78
2022/07/18 08:42:40;;;;;;;7.07;2.78;;;;;;;30.01;24.32;102080.19;4995099;28;20430;-79
2022/07/18 08:45:06;;;;;;;7.70;2.35;;;;;;;30.50;23.60;102110.41;4995463;28;20088;-79
2022/07/18 08:47:31;;;;;;;4.70;2.47;;;;;;;30.80;23.06;102101.56;4995302;28;20027;-78
2022/07/18 08:49:59;;;;;;;6.07;2.50;;;;;;;30.99;22.87;102101.44;4995109;28;20030;-78
2022/07/18 08:52:25;;;;;;;9.32;2.65;;;;;;;31.14;22.77;102100.59;4995646;28;20057;-79
2022/07/18 08:54:50;;;;;;;9.80;2.80;;;;;;;31.49;22.65;102109.56;4995095;28;20088;-79
2022/07/18 08:57:17;;;;;;;10.90;2.80;;;;;;;31.37;23.70;102102.94;4995200;28;20023;-79
2022/07/18 08:59:43;;;;;;;6.35;2.60;;;;;;;31.25;22.39;102098.13;4995060;28;20039;-79
2022/07/18 09:02:08;;;;;;;5.70;2.60;;;;;;;31.31;23.04;102088.75;4993264;28;20113;-78
2022/07/18 09:04:41;;;;;;;8.93;2.65;;;;;;;31.26;24.47;102101.72;4994948;28;20120;-78
2022/07/18 09:07:08;;;;;;;6.38;2.60;;;;;;;31.32;23.50;102094.13;4995071;28;20053;-78
2022/07/18 09:09:35;;;;;;;10.52;2.80;;;;;;;31.82;22.28;102098.53;4994674;28;20113;-77
2022/07/18 09:12:09;;;;;;;6.70;2.83;;;;;;;32.17;22.92;102096.44;4994553;28;20098;-78
2022/07/18 09:14:44;;;;;;;9.52;2.72;;;;;;;32.73;22.93;102091.22;4989532;28;20109;-79
2022/07/18 09:17:11;;;;;;;7.93;2.63;;;;;;;32.99;21.27;102096.94;4975348;28;20070;-82
2022/07/18 09:19:38;;;;;;;5.55;2.50;;;;;;;33.24;20.99;102088.00;4975461;28;20037;-83
2022/07/18 09:22:21;;;;;;;8.30;2.38;;;;;;;33.18;22.21;102083.78;4975251;28;20034;-80
2022/07/18 09:25:03;;;;;;;8.32;2.70;;;;;;;33.31;22.15;102089.34;4975295;28;20451;-81
2022/07/18 09:27:35;;;;;;;9.05;2.60;;;;;;;33.62;21.48;102086.38;4975004;28;20471;-81
2022/07/18 09:30:20;;;;;;;6.28;2.40;;;;;;;33.97;21.40;102080.41;4974956;28;20027;-81
2022/07/18 09:33:07;;;;;;;6.88;2.40;;;;;;;34.39;22.04;102093.00;4974963;28;20035;-81
2022/07/18 09:35:54;;;;;;;8.18;2.67;;;;;;;34.59;21.68;102093.47;4975372;28;20114;-80
2022/07/18 09:38:21;;;;;;;6.97;2.40;;;;;;;34.68;21.63;102092.81;4975205;28;20026;-80
2022/07/18 09:40:54;;;;;;;9.20;2.65;;;;;;;34.77;20.14;102097.66;4974690;28;20026;-81
2022/07/18 09:43:22;;;;;;;6.15;2.40;;;;;;;34.75;20.04;102093.28;4975918;28;20050;-81
2022/07/18 09:45:53;;;;;;;9.90;2.78;;;;;;;34.39;20.35;102089.38;4975218;28;20374;-81
2022/07/18 09:48:25;;;;;;;5.75;2.50;;;;;;;34.50;20.65;102094.13;4975258;28;20026;-80
2022/07/18 09:50:52;;;;;;;12.38;2.92;;;;;;;34.79;19.79;102087.44;4975248;28;20026;-81
2022/07/18 09:53:30;;;;;;;11.85;3.00;;;;;;;35.10;20.34;102091.59;4975374;28;20101;-81
2022/07/18 09:55:58;;;;;;;10.40;2.67;;;;;;;35.16;20.33;102094.88;4973956;28;20367;-82
2022/07/18 09:58:26;;;;;;;8.43;2.70;;;;;;;35.31;19.58;102082.78;4974927;28;20117;-82
2022/07/18 10:00:53;;;;;;;5.72;2.60;;;;;;;35.40;19.50;102076.59;4974596;28;20467;-82
2022/07/18 10:03:19;;;;;;;8.77;2.63;;;;;;;35.66;19.04;102079.28;4957405;28;20117;-82
2022/07/18 10:05:46;;;;;;;6.65;2.40;;;;;;;35.49;18.63;102080.56;4974927;28;20138;-82
2022/07/18 10:08:20;;;;;;;10.55;2.70;;;;;;;35.77;19.32;102076.59;4974349;28;20046;-81
2022/07/18 10:10:47;;;;;;;7.50;2.80;;;;;;;35.71;19.92;102085.28;4974471;28;20023;-82
2022/07/18 10:13:15;;;;;;;10.60;2.60;;;;;;;35.93;18.62;102084.53;4973124;28;20065;-83
2022/07/18 10:15:43;;;;;;;6.25;2.70;;;;;;;35.83;18.76;102079.72;4974650;28;20046;-81
2022/07/18 10:18:11;;;;;;;6.63;2.65;;;;;;;35.91;19.44;102076.41;4974224;28;20034;-81
2022/07/18 10:20:38;;;;;;;7.20;2.72;;;;;;;35.94;18.92;102078.06;4974034;28;20164;-84
2022/07/18 10:23:23;;;;;;;6.78;2.83;;;;;;;35.66;19.83;102062.78;4974057;28;20439;-81
2022/07/18 10:26:10;;;;;;;6.20;2.83;;;;;;;36.02;20.23;102084.75;4974458;28;20035;-82
2022/07/18 10:28:35;;;;;;;7.35;2.80;;;;;;;36.14;19.31;102082.88;4974463;28;20478;-82
2022/07/18 10:31:19;;;;;;;6.47;2.67;;;;;;;36.62;19.31;102071.78;4973808;28;20022;-81
2022/07/18 10:33:47;;;;;;;10.23;2.78;;;;;;;36.47;19.17;102073.88;4972874;28;20085;-82
2022/07/18 10:36:14;;;;;;;7.38;2.90;;;;;;;36.56;18.49;102064.88;4973994;28;20486;-81
2022/07/18 10:39:10;;;;;;;7.60;2.70;;;;;;;36.91;19.69;102065.78;4973851;28;20526;-81
2022/07/18 10:41:39;;;;;;;6.75;2.58;;;;;;;36.78;18.51;102066.78;4974130;28;20125;-81
2022/07/18 10:44:30;;;;;;;5.15;2.80;;;;;;;36.83;19.71;102063.66;4973951;28;20027;-81
2022/07/18 10:47:24;;;;;;;5.80;2.53;;;;;;;36.65;17.93;102068.78;4970869;28;20442;-81
2022/07/18 10:49:49;;;;;;;6.10;2.33;;;;;;;36.61;17.51;102067.25;4974182;28;20027;-82
2022/07/18 10:52:32;;;;;;;6.07;2.40;;;;;;;36.29;18.90;102065.19;4974133;28;20125;-81
2022/07/18 10:55:07;;;;;;;6.20;2.60;;;;;;;35.90;19.47;102060.03;4974073;28;20459;-81
2022/07/18 10:57:33;;;;;;;6.07;2.60;;;;;;;36.08;18.40;102065.00;4972770;28;20031;-81
2022/07/18 11:00:08;;;;;;;4.57;2.38;;;;;;;35.91;19.36;102046.13;4974042;28;20031;-81
2022/07/18 11:02:39;;;;;;;5.45;2.30;;;;;;;36.14;18.67;102051.75;4972961;28;20382;-81
2022/07/18 11:05:22;;;;;;;9.57;2.60;;;;;;;36.32;20.14;102064.94;4974135;28;20499;-81
2022/07/18 11:08:03;;;;;;;8.70;2.60;;;;;;;36.55;19.57;102056.75;4973909;28;20371;-83
2022/07/18 11:10:44;;;;;;;10.40;2.67;;;;;;;36.53;19.26;102047.72;4973824;28;20077;-82
2022/07/18 11:13:28;;;;;;;6.18;2.67;;;;;;;36.51;19.23;102039.59;4972489;28;20023;-81
2022/07/18 11:16:16;;;;;;;9.27;2.80;;;;;;;36.55;18.89;102043.00;4973926;28;20025;-82
2022/07/18 11:18:44;;;;;;;8.55;2.47;;;;;;;36.93;18.47;102042.66;4973020;28;20046;-81
2022/07/18 11:21:29;;;;;;;8.32;2.70;;;;;;;37.21;19.00;102041.22;4973828;28;20141;-82
2022/07/18 11:24:07;;;;;;;12.13;2.90;;;;;;;37.62;19.27;102039.66;4972236;28;20106;-81
2022/07/18 11:26:33;;;;;;;6.97;2.85;;;;;;;37.80;18.19;102034.44;4973644;28;20027;-81